sensor_id;sensor_type;location;lat;lon;timestamp;P1;durP1;ratioP1;P2;durP2;ratioP2
51292;SDS011;37377;45.186;9.778;2022-10-30T00:02:06;39.08;;;22.95;;
51292;SDS011;37377;45.186;9.778;2022-10-30T00:04:35;40.00;;;24.80;;
51292;SDS011;37377;45.186;9.778;2022-10-30T00:07:02;38.75;;;26.33;;
51292;SDS011;37377;45.186;9.778;2022-10-30T00:09:32;51.67;;;27.83;;
51292;SDS011;37377;45.186;9.778;2022-10-30T00:12:03;46.97;;;28.15;;
51292;SDS011;37377;45.186;9.778;2022-10-30T00:14:31;56.25;;;27.33;;
51292;SDS011;37377;45.186;9.778;2022-10-30T00:16:58;44.92;;;28.02;;
51292;SDS011;37377;45.186;9.778;2022-10-30T00:19:31;47.10;;;28.63;;
51292;SDS011;37377;45.186;9.778;2022-10-30T00:22:04;45.88;;;26.98;;
51292;SDS011;37377;45.186;9.778;2022-10-30T00:24:29;50.55;;;29.27;;
51292;SDS011;37377;45.186;9.778;2022-10-30T00:27:09;52.28;;;28.13;;
51292;SDS011;37377;45.186;9.778;2022-10-30T00:29:41;47.40;;;29.20;;
51292;SDS011;37377;45.186;9.778;2022-10-30T00:32:12;43.10;;;28.27;;
51292;SDS011;37377;45.186;9.778;2022-10-30T00:34:39;46.85;;;28.85;;
51292;SDS011;37377;45.186;9.778;2022-10-30T00:37:30;42.85;;;26.73;;
51292;SDS011;37377;45.186;9.778;2022-10-30T00:39:58;44.47;;;27.98;;
51292;SDS011;37377;45.186;9.778;2022-10-30T00:42:28;50.95;;;29.23;;
51292;SDS011;37377;45.186;9.778;2022-10-30T00:45:00;46.58;;;29.63;;
51292;SDS011;37377;45.186;9.778;2022-10-30T00:47:37;47.70;;;27.73;;
51292;SDS011;37377;45.186;9.778;2022-10-30T00:50:14;44.30;;;28.60;;
51292;SDS011;37377;45.186;9.778;2022-10-30T00:53:09;48.83;;;29.67;;
51292;SDS011;37377;45.186;9.778;2022-10-30T00:55:39;49.30;;;30.17;;
51292;SDS011;37377;45.186;9.778;2022-10-30T00:58:14;47.40;;;28.23;;
51292;SDS011;37377;45.186;9.778;2022-10-30T01:00:45;48.83;;;30.98;;
51292;SDS011;37377;45.186;9.778;2022-10-30T01:03:15;46.67;;;29.80;;
51292;SDS011;37377;45.186;9.778;2022-10-30T01:05:43;47.38;;;29.52;;
51292;SDS011;37377;45.186;9.778;2022-10-30T01:08:11;54.78;;;29.67;;
51292;SDS011;37377;45.186;9.778;2022-10-30T01:10:40;49.80;;;30.33;;
51292;SDS011;37377;45.186;9.778;2022-10-30T01:13:08;51.22;;;32.60;;
51292;SDS011;37377;45.186;9.778;2022-10-30T01:15:37;54.67;;;33.13;;
51292;SDS011;37377;45.186;9.778;2022-10-30T01:18:12;61.78;;;32.53;;
51292;SDS011;37377;45.186;9.778;2022-10-30T01:23:44;65.72;;;34.00;;
51292;SDS011;37377;45.186;9.778;2022-10-30T01:26:26;56.72;;;35.03;;
51292;SDS011;37377;45.186;9.778;2022-10-30T01:34:19;60.15;;;34.63;;
51292;SDS011;37377;45.186;9.778;2022-10-30T01:37:09;56.53;;;35.25;;
51292;SDS011;37377;45.186;9.778;2022-10-30T01:39:43;59.55;;;34.53;;
51292;SDS011;37377;45.186;9.778;2022-10-30T01:48:13;68.25;;;38.10;;
51292;SDS011;37377;45.186;9.778;2022-10-30T01:50:56;59.70;;;36.78;;
51292;SDS011;37377;45.186;9.778;2022-10-30T01:54:06;56.50;;;35.63;;
51292;SDS011;37377;45.186;9.778;2022-10-30T01:59:34;57.20;;;35.53;;
51292;SDS011;37377;45.186;9.778;2022-10-30T02:02:05;57.03;;;35.15;;
51292;SDS011;37377;45.186;9.778;2022-10-30T02:04:33;52.13;;;33.92;;
51292;SDS011;37377;45.186;9.778;2022-10-30T02:07:00;62.65;;;35.15;;
51292;SDS011;37377;45.186;9.778;2022-10-30T02:09:27;60.38;;;35.60;;
51292;SDS011;37377;45.186;9.778;2022-10-30T02:11:55;68.88;;;37.40;;
51292;SDS011;37377;45.186;9.778;2022-10-30T02:14:24;62.70;;;37.05;;
51292;SDS011;37377;45.186;9.778;2022-10-30T02:16:55;64.28;;;36.65;;
51292;SDS011;37377;45.186;9.778;2022-10-30T02:19:23;71.63;;;38.22;;
51292;SDS011;37377;45.186;9.778;2022-10-30T02:21:50;67.60;;;36.58;;
51292;SDS011;37377;45.186;9.778;2022-10-30T02:24:18;67.38;;;36.67;;
51292;SDS011;37377;45.186;9.778;2022-10-30T02:26:46;62.60;;;35.63;;
51292;SDS011;37377;45.186;9.778;2022-10-30T02:29:13;64.47;;;37.13;;
51292;SDS011;37377;45.186;9.778;2022-10-30T02:31:40;60.60;;;35.83;;
51292;SDS011;37377;45.186;9.778;2022-10-30T02:34:08;55.38;;;35.72;;
51292;SDS011;37377;45.186;9.778;2022-10-30T02:36:35;57.15;;;34.50;;
51292;SDS011;37377;45.186;9.778;2022-10-30T02:39:03;59.83;;;35.10;;
51292;SDS011;37377;45.186;9.778;2022-10-30T02:41:32;53.72;;;34.10;;
51292;SDS011;37377;45.186;9.778;2022-10-30T02:44:00;51.50;;;33.83;;
51292;SDS011;37377;45.186;9.778;2022-10-30T02:46:28;56.05;;;33.95;;
51292;SDS011;37377;45.186;9.778;2022-10-30T02:48:56;61.08;;;34.45;;
51292;SDS011;37377;45.186;9.778;2022-10-30T02:51:23;65.22;;;34.17;;
51292;SDS011;37377;45.186;9.778;2022-10-30T02:53:50;49.08;;;32.78;;
51292;SDS011;37377;45.186;9.778;2022-10-30T02:56:18;50.15;;;31.90;;
51292;SDS011;37377;45.186;9.778;2022-10-30T02:58:45;52.40;;;32.45;;
51292;SDS011;37377;45.186;9.778;2022-10-30T03:01:13;51.42;;;33.55;;
51292;SDS011;37377;45.186;9.778;2022-10-30T03:03:42;57.17;;;34.88;;
51292;SDS011;37377;45.186;9.778;2022-10-30T03:06:12;58.70;;;35.03;;
51292;SDS011;37377;45.186;9.778;2022-10-30T03:08:41;72.18;;;35.92;;
51292;SDS011;37377;45.186;9.778;2022-10-30T03:11:12;62.90;;;35.33;;
51292;SDS011;37377;45.186;9.778;2022-10-30T03:13:41;60.20;;;34.78;;
51292;SDS011;37377;45.186;9.778;2022-10-30T03:16:10;53.55;;;32.85;;
51292;SDS011;37377;45.186;9.778;2022-10-30T03:18:40;66.63;;;34.50;;
51292;SDS011;37377;45.186;9.778;2022-10-30T03:21:09;55.80;;;34.63;;
51292;SDS011;37377;45.186;9.778;2022-10-30T03:23:38;53.22;;;31.75;;
51292;SDS011;37377;45.186;9.778;2022-10-30T03:26:06;50.75;;;33.88;;
51292;SDS011;37377;45.186;9.778;2022-10-30T03:28:47;56.25;;;34.47;;
51292;SDS011;37377;45.186;9.778;2022-10-30T03:31:15;53.92;;;33.92;;
51292;SDS011;37377;45.186;9.778;2022-10-30T03:33:45;51.28;;;33.17;;
51292;SDS011;37377;45.186;9.778;2022-10-30T03:36:13;63.97;;;35.08;;
51292;SDS011;37377;45.186;9.778;2022-10-30T03:38:41;52.85;;;34.58;;
51292;SDS011;37377;45.186;9.778;2022-10-30T03:41:13;53.40;;;34.75;;
51292;SDS011;37377;45.186;9.778;2022-10-30T03:43:42;53.55;;;34.80;;
51292;SDS011;37377;45.186;9.778;2022-10-30T03:46:09;52.13;;;34.08;;
51292;SDS011;37377;45.186;9.778;2022-10-30T03:48:37;60.20;;;34.83;;
51292;SDS011;37377;45.186;9.778;2022-10-30T03:51:04;57.08;;;33.90;;
51292;SDS011;37377;45.186;9.778;2022-10-30T03:53:33;60.20;;;35.30;;
51292;SDS011;37377;45.186;9.778;2022-10-30T03:56:02;50.15;;;32.28;;
51292;SDS011;37377;45.186;9.778;2022-10-30T03:58:46;58.03;;;35.17;;
51292;SDS011;37377;45.186;9.778;2022-10-30T04:01:17;51.55;;;32.90;;
51292;SDS011;37377;45.186;9.778;2022-10-30T04:03:49;45.75;;;31.80;;
51292;SDS011;37377;45.186;9.778;2022-10-30T04:06:17;52.45;;;32.33;;
51292;SDS011;37377;45.186;9.778;2022-10-30T04:08:44;51.88;;;32.40;;
51292;SDS011;37377;45.186;9.778;2022-10-30T04:11:12;55.65;;;31.80;;
51292;SDS011;37377;45.186;9.778;2022-10-30T04:13:40;49.70;;;31.48;;
51292;SDS011;37377;45.186;9.778;2022-10-30T04:16:07;51.70;;;30.83;;
51292;SDS011;37377;45.186;9.778;2022-10-30T04:18:35;49.40;;;30.67;;
51292;SDS011;37377;45.186;9.778;2022-10-30T04:21:02;49.17;;;31.75;;
51292;SDS011;37377;45.186;9.778;2022-10-30T04:23:32;47.17;;;30.70;;
51292;SDS011;37377;45.186;9.778;2022-10-30T04:26:00;48.20;;;31.98;;
51292;SDS011;37377;45.186;9.778;2022-10-30T04:28:28;53.53;;;31.48;;
51292;SDS011;37377;45.186;9.778;2022-10-30T04:30:55;50.55;;;31.20;;
51292;SDS011;37377;45.186;9.778;2022-10-30T04:33:24;53.33;;;32.67;;
51292;SDS011;37377;45.186;9.778;2022-10-30T04:35:53;52.95;;;32.70;;
51292;SDS011;37377;45.186;9.778;2022-10-30T04:38:20;46.13;;;30.98;;
51292;SDS011;37377;45.186;9.778;2022-10-30T04:40:48;43.97;;;30.42;;
51292;SDS011;37377;45.186;9.778;2022-10-30T04:43:16;59.25;;;32.28;;
51292;SDS011;37377;45.186;9.778;2022-10-30T04:45:47;53.50;;;30.55;;
51292;SDS011;37377;45.186;9.778;2022-10-30T04:48:15;48.45;;;31.05;;
51292;SDS011;37377;45.186;9.778;2022-10-30T04:50:45;48.28;;;30.92;;
51292;SDS011;37377;45.186;9.778;2022-10-30T04:53:21;43.80;;;30.13;;
51292;SDS011;37377;45.186;9.778;2022-10-30T04:55:54;52.45;;;30.65;;
51292;SDS011;37377;45.186;9.778;2022-10-30T04:58:22;45.03;;;28.17;;
51292;SDS011;37377;45.186;9.778;2022-10-30T05:01:02;54.70;;;28.45;;
51292;SDS011;37377;45.186;9.778;2022-10-30T05:03:30;44.05;;;27.35;;
51292;SDS011;37377;45.186;9.778;2022-10-30T05:06:00;46.33;;;28.67;;
51292;SDS011;37377;45.186;9.778;2022-10-30T05:08:28;42.33;;;29.25;;
51292;SDS011;37377;45.186;9.778;2022-10-30T05:10:58;43.22;;;28.70;;
51292;SDS011;37377;45.186;9.778;2022-10-30T05:13:28;40.65;;;28.08;;
51292;SDS011;37377;45.186;9.778;2022-10-30T05:15:56;41.22;;;27.00;;
51292;SDS011;37377;45.186;9.778;2022-10-30T05:18:23;46.72;;;29.52;;
51292;SDS011;37377;45.186;9.778;2022-10-30T05:20:51;45.55;;;29.00;;
51292;SDS011;37377;45.186;9.778;2022-10-30T05:23:19;48.22;;;28.88;;
51292;SDS011;37377;45.186;9.778;2022-10-30T05:25:49;57.60;;;29.77;;
51292;SDS011;37377;45.186;9.778;2022-10-30T05:28:17;64.20;;;28.10;;
51292;SDS011;37377;45.186;9.778;2022-10-30T05:30:51;47.30;;;28.45;;
51292;SDS011;37377;45.186;9.778;2022-10-30T05:33:45;48.60;;;27.48;;
51292;SDS011;37377;45.186;9.778;2022-10-30T05:36:12;50.42;;;26.42;;
51292;SDS011;37377;45.186;9.778;2022-10-30T05:38:41;39.53;;;26.13;;
51292;SDS011;37377;45.186;9.778;2022-10-30T05:41:13;50.47;;;27.83;;
51292;SDS011;37377;45.186;9.778;2022-10-30T05:43:41;41.58;;;26.20;;
51292;SDS011;37377;45.186;9.778;2022-10-30T05:46:08;46.58;;;27.08;;
51292;SDS011;37377;45.186;9.778;2022-10-30T05:48:47;38.30;;;25.52;;
51292;SDS011;37377;45.186;9.778;2022-10-30T05:51:22;47.05;;;27.00;;
51292;SDS011;37377;45.186;9.778;2022-10-30T05:53:53;67.78;;;29.52;;
51292;SDS011;37377;45.186;9.778;2022-10-30T05:56:24;53.70;;;27.42;;
51292;SDS011;37377;45.186;9.778;2022-10-30T05:58:51;50.55;;;28.67;;
51292;SDS011;37377;45.186;9.778;2022-10-30T06:01:18;45.88;;;27.13;;
51292;SDS011;37377;45.186;9.778;2022-10-30T06:03:50;50.95;;;30.05;;
51292;SDS011;37377;45.186;9.778;2022-10-30T06:06:17;49.85;;;29.45;;
51292;SDS011;37377;45.186;9.778;2022-10-30T06:08:47;51.70;;;29.05;;
51292;SDS011;37377;45.186;9.778;2022-10-30T06:11:43;45.67;;;29.52;;
51292;SDS011;37377;45.186;9.778;2022-10-30T06:14:12;48.13;;;28.17;;
51292;SDS011;37377;45.186;9.778;2022-10-30T06:16:45;47.63;;;29.63;;
51292;SDS011;37377;45.186;9.778;2022-10-30T06:19:35;51.60;;;29.50;;
51292;SDS011;37377;45.186;9.778;2022-10-30T06:22:22;52.75;;;29.70;;
51292;SDS011;37377;45.186;9.778;2022-10-30T06:24:56;53.00;;;27.58;;
51292;SDS011;37377;45.186;9.778;2022-10-30T06:27:50;47.40;;;27.70;;
51292;SDS011;37377;45.186;9.778;2022-10-30T06:30:18;44.33;;;26.25;;
51292;SDS011;37377;45.186;9.778;2022-10-30T06:32:45;40.45;;;25.25;;
51292;SDS011;37377;45.186;9.778;2022-10-30T06:35:13;41.05;;;25.73;;
51292;SDS011;37377;45.186;9.778;2022-10-30T06:37:47;42.08;;;24.42;;
51292;SDS011;37377;45.186;9.778;2022-10-30T06:40:16;41.10;;;23.88;;
51292;SDS011;37377;45.186;9.778;2022-10-30T06:42:45;35.22;;;21.52;;
51292;SDS011;37377;45.186;9.778;2022-10-30T06:45:31;34.38;;;21.63;;
51292;SDS011;37377;45.186;9.778;2022-10-30T06:48:01;40.15;;;21.35;;
51292;SDS011;37377;45.186;9.778;2022-10-30T06:50:54;31.17;;;19.75;;
51292;SDS011;37377;45.186;9.778;2022-10-30T06:53:24;40.55;;;20.50;;
51292;SDS011;37377;45.186;9.778;2022-10-30T06:55:55;28.92;;;18.20;;
51292;SDS011;37377;45.186;9.778;2022-10-30T07:02:43;29.80;;;17.65;;
51292;SDS011;37377;45.186;9.778;2022-10-30T07:05:12;26.20;;;17.05;;
51292;SDS011;37377;45.186;9.778;2022-10-30T07:07:43;26.40;;;16.65;;
51292;SDS011;37377;45.186;9.778;2022-10-30T07:25:43;34.28;;;15.82;;
51292;SDS011;37377;45.186;9.778;2022-10-30T07:29:48;32.90;;;15.30;;
51292;SDS011;37377;45.186;9.778;2022-10-30T07:34:04;29.33;;;14.80;;
51292;SDS011;37377;45.186;9.778;2022-10-30T07:36:48;24.00;;;13.27;;
51292;SDS011;37377;45.186;9.778;2022-10-30T07:39:24;28.48;;;14.57;;
51292;SDS011;37377;45.186;9.778;2022-10-30T07:42:03;23.30;;;13.27;;
51292;SDS011;37377;45.186;9.778;2022-10-30T07:45:38;32.88;;;18.33;;
51292;SDS011;37377;45.186;9.778;2022-10-30T07:53:28;28.33;;;12.55;;
51292;SDS011;37377;45.186;9.778;2022-10-30T07:57:10;21.80;;;12.60;;
51292;SDS011;37377;45.186;9.778;2022-10-30T08:00:14;24.35;;;12.43;;
51292;SDS011;37377;45.186;9.778;2022-10-30T08:04:04;26.35;;;12.38;;
51292;SDS011;37377;45.186;9.778;2022-10-30T08:06:31;23.30;;;13.88;;
51292;SDS011;37377;45.186;9.778;2022-10-30T08:08:58;23.23;;;12.10;;
51292;SDS011;37377;45.186;9.778;2022-10-30T08:11:26;38.85;;;13.40;;
51292;SDS011;37377;45.186;9.778;2022-10-30T08:13:55;21.00;;;12.07;;
51292;SDS011;37377;45.186;9.778;2022-10-30T08:16:22;29.13;;;13.13;;
51292;SDS011;37377;45.186;9.778;2022-10-30T08:18:49;26.38;;;11.68;;
51292;SDS011;37377;45.186;9.778;2022-10-30T08:21:19;23.23;;;12.13;;
51292;SDS011;37377;45.186;9.778;2022-10-30T08:23:55;23.15;;;12.50;;
51292;SDS011;37377;45.186;9.778;2022-10-30T08:26:25;21.42;;;11.85;;
51292;SDS011;37377;45.186;9.778;2022-10-30T08:28:52;21.08;;;12.48;;
51292;SDS011;37377;45.186;9.778;2022-10-30T08:31:19;20.73;;;12.00;;
51292;SDS011;37377;45.186;9.778;2022-10-30T08:34:09;26.02;;;13.57;;
51292;SDS011;37377;45.186;9.778;2022-10-30T08:36:49;26.85;;;13.60;;
51292;SDS011;37377;45.186;9.778;2022-10-30T08:39:18;24.90;;;13.73;;
51292;SDS011;37377;45.186;9.778;2022-10-30T08:42:04;27.73;;;14.88;;
51292;SDS011;37377;45.186;9.778;2022-10-30T08:44:39;27.77;;;15.50;;
51292;SDS011;37377;45.186;9.778;2022-10-30T08:47:22;25.42;;;14.57;;
51292;SDS011;37377;45.186;9.778;2022-10-30T08:49:49;27.30;;;16.05;;
51292;SDS011;37377;45.186;9.778;2022-10-30T08:52:22;26.67;;;15.15;;
51292;SDS011;37377;45.186;9.778;2022-10-30T08:54:54;25.42;;;16.13;;
51292;SDS011;37377;45.186;9.778;2022-10-30T08:57:23;28.90;;;16.58;;
51292;SDS011;37377;45.186;9.778;2022-10-30T08:59:51;28.40;;;15.80;;
51292;SDS011;37377;45.186;9.778;2022-10-30T09:02:36;26.98;;;16.10;;
51292;SDS011;37377;45.186;9.778;2022-10-30T09:05:30;33.55;;;17.40;;
51292;SDS011;37377;45.186;9.778;2022-10-30T09:08:15;27.55;;;15.60;;
51292;SDS011;37377;45.186;9.778;2022-10-30T09:11:06;31.77;;;16.35;;
51292;SDS011;37377;45.186;9.778;2022-10-30T09:13:33;30.85;;;17.02;;
51292;SDS011;37377;45.186;9.778;2022-10-30T09:16:02;27.95;;;16.92;;
51292;SDS011;37377;45.186;9.778;2022-10-30T09:18:32;30.83;;;18.05;;
51292;SDS011;37377;45.186;9.778;2022-10-30T09:21:00;26.90;;;16.98;;
51292;SDS011;37377;45.186;9.778;2022-10-30T09:23:35;31.67;;;17.20;;
51292;SDS011;37377;45.186;9.778;2022-10-30T09:26:25;37.17;;;17.92;;
51292;SDS011;37377;45.186;9.778;2022-10-30T09:29:00;27.75;;;17.60;;
51292;SDS011;37377;45.186;9.778;2022-10-30T09:31:47;30.35;;;17.13;;
51292;SDS011;37377;45.186;9.778;2022-10-30T09:34:18;29.65;;;17.00;;
51292;SDS011;37377;45.186;9.778;2022-10-30T09:36:57;33.65;;;17.55;;
51292;SDS011;37377;45.186;9.778;2022-10-30T09:39:31;29.88;;;17.77;;
51292;SDS011;37377;45.186;9.778;2022-10-30T09:42:46;32.75;;;17.85;;
51292;SDS011;37377;45.186;9.778;2022-10-30T10:00:24;32.85;;;15.48;;
51292;SDS011;37377;45.186;9.778;2022-10-30T10:06:27;28.30;;;15.90;;
51292;SDS011;37377;45.186;9.778;2022-10-30T10:09:18;27.42;;;14.13;;
51292;SDS011;37377;45.186;9.778;2022-10-30T10:12:25;29.52;;;13.75;;
51292;SDS011;37377;45.186;9.778;2022-10-30T10:15:39;21.90;;;13.18;;
51292;SDS011;37377;45.186;9.778;2022-10-30T10:18:29;24.65;;;11.68;;
51292;SDS011;37377;45.186;9.778;2022-10-30T10:21:26;26.95;;;11.98;;
51292;SDS011;37377;45.186;9.778;2022-10-30T10:24:14;18.85;;;12.15;;
51292;SDS011;37377;45.186;9.778;2022-10-30T10:30:24;20.48;;;10.43;;
51292;SDS011;37377;45.186;9.778;2022-10-30T10:36:34;21.08;;;10.35;;
51292;SDS011;37377;45.186;9.778;2022-10-30T10:39:39;18.55;;;10.68;;
51292;SDS011;37377;45.186;9.778;2022-10-30T10:42:12;24.13;;;10.15;;
51292;SDS011;37377;45.186;9.778;2022-10-30T10:45:19;23.40;;;11.38;;
51292;SDS011;37377;45.186;9.778;2022-10-30T10:47:59;22.17;;;9.27;;
51292;SDS011;37377;45.186;9.778;2022-10-30T10:50:47;19.23;;;9.38;;
51292;SDS011;37377;45.186;9.778;2022-10-30T10:53:26;22.23;;;9.95;;
51292;SDS011;37377;45.186;9.778;2022-10-30T10:56:09;22.70;;;9.52;;
51292;SDS011;37377;45.186;9.778;2022-10-30T10:58:43;19.85;;;8.32;;
51292;SDS011;37377;45.186;9.778;2022-10-30T11:01:17;21.33;;;8.63;;
51292;SDS011;37377;45.186;9.778;2022-10-30T11:04:09;20.23;;;8.57;;
51292;SDS011;37377;45.186;9.778;2022-10-30T11:07:01;17.45;;;7.95;;
51292;SDS011;37377;45.186;9.778;2022-10-30T11:12:10;17.38;;;8.10;;
51292;SDS011;37377;45.186;9.778;2022-10-30T11:14:37;24.83;;;8.32;;
51292;SDS011;37377;45.186;9.778;2022-10-30T11:18:06;20.83;;;7.88;;
51292;SDS011;37377;45.186;9.778;2022-10-30T11:21:03;19.33;;;7.57;;
51292;SDS011;37377;45.186;9.778;2022-10-30T11:23:42;19.60;;;7.53;;
51292;SDS011;37377;45.186;9.778;2022-10-30T11:31:25;24.73;;;7.75;;
51292;SDS011;37377;45.186;9.778;2022-10-30T11:34:11;17.67;;;7.80;;
51292;SDS011;37377;45.186;9.778;2022-10-30T11:37:07;29.95;;;8.05;;
51292;SDS011;37377;45.186;9.778;2022-10-30T11:40:19;19.38;;;7.25;;
51292;SDS011;37377;45.186;9.778;2022-10-30T11:42:59;25.15;;;7.90;;
51292;SDS011;37377;45.186;9.778;2022-10-30T11:45:30;24.17;;;8.05;;
51292;SDS011;37377;45.186;9.778;2022-10-30T11:47:59;13.43;;;6.35;;
51292;SDS011;37377;45.186;9.778;2022-10-30T11:50:30;23.40;;;7.05;;
51292;SDS011;37377;45.186;9.778;2022-10-30T11:52:59;13.90;;;6.38;;
51292;SDS011;37377;45.186;9.778;2022-10-30T11:55:35;19.98;;;7.95;;
51292;SDS011;37377;45.186;9.778;2022-10-30T11:58:04;12.73;;;6.22;;
51292;SDS011;37377;45.186;9.778;2022-10-30T12:00:33;15.32;;;7.13;;
51292;SDS011;37377;45.186;9.778;2022-10-30T12:03:09;24.05;;;7.03;;
51292;SDS011;37377;45.186;9.778;2022-10-30T12:05:52;18.92;;;5.97;;
51292;SDS011;37377;45.186;9.778;2022-10-30T12:08:57;12.27;;;6.38;;
51292;SDS011;37377;45.186;9.778;2022-10-30T12:11:53;17.45;;;6.40;;
51292;SDS011;37377;45.186;9.778;2022-10-30T12:14:21;17.83;;;6.65;;
51292;SDS011;37377;45.186;9.778;2022-10-30T12:16:56;21.33;;;7.40;;
51292;SDS011;37377;45.186;9.778;2022-10-30T12:19:24;21.60;;;6.93;;
51292;SDS011;37377;45.186;9.778;2022-10-30T12:21:52;17.13;;;7.68;;
51292;SDS011;37377;45.186;9.778;2022-10-30T12:26:53;15.52;;;6.47;;
51292;SDS011;37377;45.186;9.778;2022-10-30T12:29:25;18.05;;;6.28;;
51292;SDS011;37377;45.186;9.778;2022-10-30T12:33:15;16.60;;;6.00;;
51292;SDS011;37377;45.186;9.778;2022-10-30T12:38:16;26.35;;;6.22;;
51292;SDS011;37377;45.186;9.778;2022-10-30T12:40:59;17.40;;;5.38;;
51292;SDS011;37377;45.186;9.778;2022-10-30T12:43:34;20.92;;;5.72;;
51292;SDS011;37377;45.186;9.778;2022-10-30T12:51:41;16.88;;;5.20;;
51292;SDS011;37377;45.186;9.778;2022-10-30T12:54:21;16.63;;;5.90;;
51292;SDS011;37377;45.186;9.778;2022-10-30T12:57:02;13.38;;;5.18;;
51292;SDS011;37377;45.186;9.778;2022-10-30T13:02:36;22.10;;;5.63;;
51292;SDS011;37377;45.186;9.778;2022-10-30T13:10:30;17.83;;;5.32;;
51292;SDS011;37377;45.186;9.778;2022-10-30T13:13:12;14.27;;;6.00;;
51292;SDS011;37377;45.186;9.778;2022-10-30T13:15:44;24.40;;;6.50;;
51292;SDS011;37377;45.186;9.778;2022-10-30T13:18:35;17.02;;;6.63;;
51292;SDS011;37377;45.186;9.778;2022-10-30T13:21:13;15.23;;;6.30;;
51292;SDS011;37377;45.186;9.778;2022-10-30T13:29:48;23.20;;;6.00;;
51292;SDS011;37377;45.186;9.778;2022-10-30T13:49:40;23.25;;;9.25;;
51292;SDS011;37377;45.186;9.778;2022-10-30T13:52:20;18.98;;;6.18;;
51292;SDS011;37377;45.186;9.778;2022-10-30T13:54:53;20.08;;;8.07;;
51292;SDS011;37377;45.186;9.778;2022-10-30T14:05:59;17.40;;;7.20;;
51292;SDS011;37377;45.186;9.778;2022-10-30T14:08:37;17.80;;;6.93;;
51292;SDS011;37377;45.186;9.778;2022-10-30T14:11:11;20.90;;;7.53;;
51292;SDS011;37377;45.186;9.778;2022-10-30T14:13:55;15.50;;;6.50;;
51292;SDS011;37377;45.186;9.778;2022-10-30T14:16:30;15.32;;;6.07;;
51292;SDS011;37377;45.186;9.778;2022-10-30T14:19:10;16.25;;;6.28;;
51292;SDS011;37377;45.186;9.778;2022-10-30T14:27:25;19.42;;;6.20;;
51292;SDS011;37377;45.186;9.778;2022-10-30T14:39:56;17.90;;;6.78;;
51292;SDS011;37377;45.186;9.778;2022-10-30T14:42:56;17.73;;;6.90;;
51292;SDS011;37377;45.186;9.778;2022-10-30T14:45:27;21.77;;;7.18;;
51292;SDS011;37377;45.186;9.778;2022-10-30T14:47:58;17.73;;;6.22;;
51292;SDS011;37377;45.186;9.778;2022-10-30T14:53:27;16.05;;;7.07;;
51292;SDS011;37377;45.186;9.778;2022-10-30T14:58:37;18.70;;;7.80;;
51292;SDS011;37377;45.186;9.778;2022-10-30T15:01:17;17.90;;;6.68;;
51292;SDS011;37377;45.186;9.778;2022-10-30T15:04:13;21.98;;;7.78;;
51292;SDS011;37377;45.186;9.778;2022-10-30T15:09:59;29.88;;;8.88;;
51292;SDS011;37377;45.186;9.778;2022-10-30T15:12:50;25.67;;;8.90;;
51292;SDS011;37377;45.186;9.778;2022-10-30T15:15:29;30.65;;;9.45;;
51292;SDS011;37377;45.186;9.778;2022-10-30T15:18:01;23.35;;;8.63;;
51292;SDS011;37377;45.186;9.778;2022-10-30T15:20:36;23.40;;;9.10;;
51292;SDS011;37377;45.186;9.778;2022-10-30T15:23:13;30.45;;;8.20;;
51292;SDS011;37377;45.186;9.778;2022-10-30T15:26:21;28.85;;;8.82;;
51292;SDS011;37377;45.186;9.778;2022-10-30T15:28:49;32.75;;;13.25;;
51292;SDS011;37377;45.186;9.778;2022-10-30T15:31:21;33.65;;;9.02;;
51292;SDS011;37377;45.186;9.778;2022-10-30T15:33:50;19.38;;;8.05;;
51292;SDS011;37377;45.186;9.778;2022-10-30T15:36:24;18.60;;;8.80;;
51292;SDS011;37377;45.186;9.778;2022-10-30T15:39:05;26.67;;;8.10;;
51292;SDS011;37377;45.186;9.778;2022-10-30T15:41:43;28.42;;;8.55;;
51292;SDS011;37377;45.186;9.778;2022-10-30T15:44:16;16.58;;;7.00;;
51292;SDS011;37377;45.186;9.778;2022-10-30T15:46:49;22.13;;;8.30;;
51292;SDS011;37377;45.186;9.778;2022-10-30T15:55:42;18.77;;;8.45;;
51292;SDS011;37377;45.186;9.778;2022-10-30T15:58:38;26.58;;;9.35;;
51292;SDS011;37377;45.186;9.778;2022-10-30T16:01:08;33.83;;;9.63;;
51292;SDS011;37377;45.186;9.778;2022-10-30T16:04:23;23.08;;;8.23;;
51292;SDS011;37377;45.186;9.778;2022-10-30T16:07:43;27.90;;;10.25;;
51292;SDS011;37377;45.186;9.778;2022-10-30T16:10:59;34.42;;;9.35;;
51292;SDS011;37377;45.186;9.778;2022-10-30T16:13:54;31.65;;;9.95;;
51292;SDS011;37377;45.186;9.778;2022-10-30T16:21:54;25.58;;;9.95;;
51292;SDS011;37377;45.186;9.778;2022-10-30T16:56:00;39.15;;;11.32;;
51292;SDS011;37377;45.186;9.778;2022-10-30T16:58:30;40.10;;;12.00;;
51292;SDS011;37377;45.186;9.778;2022-10-30T17:07:16;39.40;;;12.80;;
51292;SDS011;37377;45.186;9.778;2022-10-30T17:11:04;39.72;;;13.13;;
51292;SDS011;37377;45.186;9.778;2022-10-30T17:15:19;41.72;;;11.68;;
51292;SDS011;37377;45.186;9.778;2022-10-30T17:18:56;44.08;;;13.13;;
51292;SDS011;37377;45.186;9.778;2022-10-30T17:26:51;39.83;;;12.73;;
51292;SDS011;37377;45.186;9.778;2022-10-30T17:39:04;26.45;;;12.07;;
51292;SDS011;37377;45.186;9.778;2022-10-30T17:43:08;35.38;;;13.23;;
51292;SDS011;37377;45.186;9.778;2022-10-30T17:50:18;30.88;;;12.27;;
51292;SDS011;37377;45.186;9.778;2022-10-30T17:53:02;35.40;;;13.65;;
51292;SDS011;37377;45.186;9.778;2022-10-30T17:58:45;36.35;;;12.45;;
51292;SDS011;37377;45.186;9.778;2022-10-30T18:02:29;39.33;;;12.85;;
51292;SDS011;37377;45.186;9.778;2022-10-30T18:06:29;32.20;;;13.38;;
51292;SDS011;37377;45.186;9.778;2022-10-30T18:10:24;28.63;;;13.43;;
51292;SDS011;37377;45.186;9.778;2022-10-30T18:14:15;41.47;;;14.07;;
51292;SDS011;37377;45.186;9.778;2022-10-30T18:17:57;36.35;;;12.90;;
51292;SDS011;37377;45.186;9.778;2022-10-30T18:22:08;34.95;;;14.15;;
51292;SDS011;37377;45.186;9.778;2022-10-30T18:30:04;33.47;;;15.30;;
51292;SDS011;37377;45.186;9.778;2022-10-30T18:33:47;41.28;;;16.65;;
51292;SDS011;37377;45.186;9.778;2022-10-30T18:36:16;35.63;;;14.63;;
51292;SDS011;37377;45.186;9.778;2022-10-30T18:46:55;34.45;;;14.88;;
51292;SDS011;37377;45.186;9.778;2022-10-30T18:51:14;38.08;;;15.75;;
51292;SDS011;37377;45.186;9.778;2022-10-30T18:54:12;35.92;;;15.85;;
51292;SDS011;37377;45.186;9.778;2022-10-30T18:56:41;38.80;;;15.85;;
51292;SDS011;37377;45.186;9.778;2022-10-30T18:59:17;40.85;;;15.75;;
51292;SDS011;37377;45.186;9.778;2022-10-30T19:01:57;28.90;;;15.20;;
51292;SDS011;37377;45.186;9.778;2022-10-30T19:04:24;36.10;;;15.45;;
51292;SDS011;37377;45.186;9.778;2022-10-30T19:06:52;31.70;;;16.23;;
51292;SDS011;37377;45.186;9.778;2022-10-30T19:09:33;40.97;;;16.60;;
51292;SDS011;37377;45.186;9.778;2022-10-30T19:12:29;44.00;;;16.65;;
51292;SDS011;37377;45.186;9.778;2022-10-30T19:15:44;44.70;;;16.30;;
51292;SDS011;37377;45.186;9.778;2022-10-30T19:18:13;41.17;;;16.48;;
51292;SDS011;37377;45.186;9.778;2022-10-30T19:20:41;33.60;;;17.27;;
51292;SDS011;37377;45.186;9.778;2022-10-30T19:23:29;34.17;;;17.20;;
51292;SDS011;37377;45.186;9.778;2022-10-30T19:26:02;42.00;;;17.50;;
51292;SDS011;37377;45.186;9.778;2022-10-30T19:28:47;33.73;;;16.53;;
51292;SDS011;37377;45.186;9.778;2022-10-30T19:31:16;45.53;;;21.67;;
51292;SDS011;37377;45.186;9.778;2022-10-30T19:33:49;46.45;;;17.63;;
51292;SDS011;37377;45.186;9.778;2022-10-30T19:36:29;39.75;;;18.80;;